createdAt,value
2019-03-05T00:00:46.009Z,991.08
2019-03-05T00:01:46.023Z,991.09
2019-03-05T00:02:46.026Z,991.05
2019-03-05T00:03:46.038Z,991.38
2019-03-05T00:04:45.972Z,991.15
2019-03-05T00:05:45.955Z,991.14
2019-03-05T00:06:45.946Z,991.13
2019-03-05T00:07:45.934Z,991.12
2019-03-05T00:08:45.962Z,991.17
2019-03-05T00:09:45.917Z,991.33
2019-03-05T00:10:45.917Z,991.11
2019-03-05T00:11:45.910Z,991.15
2019-03-05T00:12:45.884Z,991.32
2019-03-05T00:13:45.870Z,991.22
2019-03-05T00:14:45.927Z,991.25
2019-03-05T00:15:45.853Z,991.15
2019-03-05T00:16:45.845Z,991.15
2019-03-05T00:17:45.822Z,991.12
2019-03-05T00:18:45.835Z,991.21
2019-03-05T00:19:45.850Z,991.22
2019-03-05T00:20:45.789Z,991.17
2019-03-05T00:21:45.812Z,991.17
2019-03-05T00:22:45.797Z,991.25
2019-03-05T00:23:45.763Z,991.21
2019-03-05T00:24:45.782Z,991.19
2019-03-05T00:25:45.784Z,991.20
2019-03-05T00:26:45.752Z,991.26
2019-03-05T00:27:45.743Z,991.41
2019-03-05T00:28:45.705Z,991.33
2019-03-05T00:29:45.722Z,991.23
2019-03-05T00:30:45.831Z,991.26
2019-03-05T00:31:45.668Z,991.31
2019-03-05T00:32:45.677Z,991.35
2019-03-05T00:33:45.671Z,991.24
2019-03-05T00:34:45.642Z,991.38
2019-03-05T00:35:45.672Z,991.37
2019-03-05T00:36:45.637Z,991.22
2019-03-05T00:37:45.619Z,991.41
2019-03-05T00:38:45.643Z,991.42
2019-03-05T00:39:45.615Z,991.28
2019-03-05T00:40:45.579Z,991.37
2019-03-05T00:41:45.574Z,991.44
2019-03-05T00:42:45.582Z,991.29
2019-03-05T00:43:45.545Z,991.40
2019-03-05T00:44:45.570Z,991.21
2019-03-05T00:45:45.526Z,991.33
2019-03-05T00:46:45.544Z,991.22
2019-03-05T00:47:45.507Z,991.24
2019-03-05T00:48:45.513Z,991.29
2019-03-05T00:49:45.475Z,991.18
2019-03-05T00:50:45.509Z,991.37
2019-03-05T00:51:54.480Z,991.20
2019-03-05T00:52:45.444Z,991.49
2019-03-05T00:53:45.490Z,991.30
2019-03-05T00:54:45.451Z,991.25
2019-03-05T00:55:45.433Z,991.36
2019-03-05T00:56:45.411Z,991.35
2019-03-05T00:57:45.415Z,991.31
2019-03-05T00:58:45.380Z,991.36
2019-03-05T00:59:45.414Z,991.38
2019-03-05T01:00:45.472Z,991.29
2019-03-05T01:01:46.640Z,991.41
2019-03-05T01:02:45.329Z,991.39
2019-03-05T01:03:45.372Z,991.38
2019-03-05T01:04:45.333Z,991.32
2019-03-05T01:05:45.296Z,991.32
2019-03-05T01:06:45.285Z,991.48
2019-03-05T01:07:45.272Z,991.42
2019-03-05T01:08:45.261Z,991.31
2019-03-05T01:09:45.297Z,991.27
2019-03-05T01:10:45.247Z,991.35
2019-03-05T01:11:45.278Z,991.31
2019-03-05T01:12:45.221Z,991.26
2019-03-05T01:13:45.209Z,991.31
2019-03-05T01:14:45.249Z,991.22
2019-03-05T01:15:45.183Z,991.37
2019-03-05T01:16:45.172Z,991.34
2019-03-05T01:17:45.168Z,991.32
2019-03-05T01:18:45.157Z,991.35
2019-03-05T01:19:45.171Z,991.16
2019-03-05T01:20:45.127Z,991.18
2019-03-05T01:21:45.116Z,991.19
2019-03-05T01:22:45.105Z,991.25
2019-03-05T01:23:45.106Z,991.44
2019-03-05T01:24:45.098Z,991.20
2019-03-05T01:25:45.132Z,991.27
2019-03-05T01:26:45.064Z,991.29
2019-03-05T01:27:45.083Z,991.25
2019-03-05T01:28:45.039Z,991.21
2019-03-05T01:29:45.028Z,991.28
2019-03-05T01:30:45.015Z,991.26
2019-03-05T01:31:45.013Z,991.40
2019-03-05T01:32:45.052Z,991.39
2019-03-05T01:33:44.983Z,991.26
2019-03-05T01:34:44.978Z,991.22
2019-03-05T01:35:44.979Z,991.26
2019-03-05T01:36:44.956Z,991.13
2019-03-05T01:37:44.979Z,991.18
2019-03-05T01:38:44.939Z,991.37
2019-03-05T01:39:44.917Z,991.18
2019-03-05T01:40:44.911Z,991.21
2019-03-05T01:41:44.896Z,991.17
2019-03-05T01:42:44.887Z,991.37
2019-03-05T01:43:44.937Z,991.23
2019-03-05T01:44:44.876Z,991.23
2019-03-05T01:45:44.858Z,991.16
2019-03-05T01:46:44.873Z,991.33
2019-03-05T01:47:44.827Z,991.25
2019-03-05T01:48:44.818Z,991.37
2019-03-05T01:49:44.868Z,991.24
2019-03-05T01:50:44.801Z,991.29
2019-03-05T01:51:44.792Z,991.27
2019-03-05T01:52:44.779Z,991.34
2019-03-05T01:53:44.791Z,991.23
2019-03-05T01:54:44.803Z,991.31
2019-03-05T01:55:44.749Z,991.25
2019-03-05T01:56:44.737Z,991.41
2019-03-05T01:57:44.730Z,991.34
2019-03-05T01:58:44.741Z,991.33
2019-03-05T01:59:44.742Z,991.51
2019-03-05T02:00:44.690Z,991.35
2019-03-05T02:01:44.677Z,991.33
2019-03-05T02:02:44.716Z,991.58
2019-03-05T02:03:44.669Z,991.30
2019-03-05T02:04:44.682Z,991.48
2019-03-05T02:05:44.634Z,991.43
2019-03-05T02:06:44.636Z,991.31
2019-03-05T02:07:44.620Z,991.40
2019-03-05T02:08:44.607Z,991.40
2019-03-05T02:09:44.618Z,991.41
2019-03-05T02:10:44.634Z,991.40
2019-03-05T02:11:44.568Z,991.53
2019-03-05T02:12:44.559Z,991.42
2019-03-05T02:13:44.561Z,991.45
2019-03-05T02:14:44.536Z,991.36
2019-03-05T02:15:44.531Z,991.41
2019-03-05T02:16:44.568Z,991.44
2019-03-05T02:17:44.513Z,991.54
2019-03-05T02:18:44.496Z,991.40
2019-03-05T02:19:44.482Z,991.47
2019-03-05T02:20:44.470Z,991.69
2019-03-05T02:21:44.462Z,991.47
2019-03-05T02:22:44.499Z,991.41
2019-03-05T02:23:44.586Z,991.46
2019-03-05T02:24:44.567Z,991.47
2019-03-05T02:25:44.441Z,991.46
2019-03-05T02:26:44.416Z,991.50
2019-03-05T02:27:44.426Z,991.48
2019-03-05T02:28:44.403Z,991.52
2019-03-05T02:29:44.376Z,991.51
2019-03-05T02:30:44.370Z,991.53
2019-03-05T02:31:44.353Z,991.52
2019-03-05T02:32:44.341Z,991.64
2019-03-05T02:33:44.376Z,991.51
2019-03-05T02:34:44.315Z,991.50
2019-03-05T02:35:44.315Z,991.51
2019-03-05T02:36:44.344Z,991.52
2019-03-05T02:37:44.283Z,991.54
2019-03-05T02:38:44.489Z,991.52
2019-03-05T02:39:44.316Z,991.63
2019-03-05T02:40:44.264Z,991.43
2019-03-05T02:41:44.320Z,991.49
2019-03-05T02:42:44.266Z,991.52
2019-03-05T02:43:44.240Z,991.52
2019-03-05T02:44:44.441Z,991.63
2019-03-05T02:45:44.204Z,991.54
2019-03-05T02:46:44.240Z,991.49
2019-03-05T02:47:44.186Z,991.56
2019-03-05T02:48:44.167Z,991.51
2019-03-05T02:49:44.191Z,991.60
2019-03-05T02:50:44.150Z,991.55
2019-03-05T02:51:44.126Z,991.51
2019-03-05T02:52:44.139Z,991.61
2019-03-05T02:53:44.116Z,991.56
2019-03-05T02:54:44.105Z,991.56
2019-03-05T02:55:44.085Z,991.53
2019-03-05T02:56:44.079Z,991.61
2019-03-05T02:57:44.087Z,991.58
2019-03-05T02:58:44.053Z,991.58
2019-03-05T02:59:44.052Z,991.54
2019-03-05T03:00:44.037Z,991.52
2019-03-05T03:01:44.064Z,991.65
2019-03-05T03:02:44.020Z,991.57
2019-03-05T03:03:44.000Z,991.54
2019-03-05T03:04:43.992Z,991.52
2019-03-05T03:05:43.976Z,991.45
2019-03-05T03:06:44.016Z,991.62
2019-03-05T03:07:43.964Z,991.55
2019-03-05T03:08:43.949Z,991.60
2019-03-05T03:09:43.934Z,991.60
2019-03-05T03:10:43.926Z,991.54
2019-03-05T03:11:43.944Z,991.56
2019-03-05T03:12:43.942Z,991.54
2019-03-05T03:13:43.907Z,991.52
2019-03-05T03:14:43.890Z,991.55
2019-03-05T03:15:43.871Z,991.64
2019-03-05T03:16:43.895Z,991.51
2019-03-05T03:17:43.882Z,991.57
2019-03-05T03:18:43.837Z,991.59
2019-03-05T03:19:43.833Z,991.58
2019-03-05T03:20:43.824Z,991.79
2019-03-05T03:21:43.815Z,991.58
2019-03-05T03:22:43.802Z,991.57
2019-03-05T03:23:43.835Z,991.64
2019-03-05T03:24:43.774Z,991.60
2019-03-05T03:25:43.773Z,991.65
2019-03-05T03:26:43.760Z,991.63
2019-03-05T03:27:43.740Z,991.89
2019-03-05T03:28:43.775Z,991.59
2019-03-05T03:29:43.721Z,991.54
2019-03-05T03:30:43.710Z,991.56
2019-03-05T03:31:43.712Z,991.57
2019-03-05T03:32:43.708Z,991.55
2019-03-05T03:33:43.731Z,991.52
2019-03-05T03:34:43.669Z,991.52
2019-03-05T03:35:43.659Z,991.61
2019-03-05T03:36:43.663Z,991.58
2019-03-05T03:37:43.650Z,991.63
2019-03-05T03:38:43.629Z,991.68
2019-03-05T03:39:43.672Z,991.64
2019-03-05T03:40:43.603Z,991.59
2019-03-05T03:41:43.597Z,991.70
2019-03-05T03:42:43.586Z,991.62
2019-03-05T03:43:43.612Z,991.66
2019-03-05T03:44:43.601Z,991.66
2019-03-05T03:45:43.544Z,991.71
2019-03-05T03:46:43.535Z,991.73
2019-03-05T03:47:43.531Z,991.67
2019-03-05T03:48:43.526Z,991.74
2019-03-05T03:49:43.571Z,991.86
2019-03-05T03:50:43.497Z,991.75
2019-03-05T03:51:43.484Z,991.87
2019-03-05T03:52:43.554Z,991.81
2019-03-05T03:53:43.462Z,991.75
2019-03-05T03:54:43.448Z,991.86
2019-03-05T03:55:43.484Z,991.75
2019-03-05T03:56:43.433Z,991.84
2019-03-05T03:57:43.422Z,991.85
2019-03-05T03:58:43.414Z,991.81
2019-03-05T03:59:43.409Z,991.73
2019-03-05T04:00:43.438Z,991.90
2019-03-05T04:01:43.383Z,991.90
2019-03-05T04:02:43.396Z,991.88
2019-03-05T04:03:43.400Z,991.97
2019-03-05T04:04:43.349Z,991.93
2019-03-05T04:05:43.380Z,992.00
2019-03-05T04:06:43.321Z,991.93
2019-03-05T04:07:43.313Z,992.01
2019-03-05T04:08:43.301Z,991.99
2019-03-05T04:09:43.320Z,992.02
2019-03-05T04:10:43.331Z,991.92
2019-03-05T04:11:43.265Z,992.02
2019-03-05T04:12:43.299Z,992.08
2019-03-05T04:13:43.250Z,992.09
2019-03-05T04:14:43.238Z,992.13
2019-03-05T04:15:43.235Z,992.07
2019-03-05T04:16:43.221Z,992.07
2019-03-05T04:17:43.201Z,992.11
2019-03-05T04:18:43.233Z,992.07
2019-03-05T04:19:43.184Z,992.00
2019-03-05T04:20:43.180Z,991.99
2019-03-05T04:21:43.162Z,992.04
2019-03-05T04:22:43.156Z,992.03
2019-03-05T04:23:43.142Z,992.41
2019-03-05T04:24:43.163Z,992.26
2019-03-05T04:25:43.114Z,991.97
2019-03-05T04:26:43.105Z,991.89
2019-03-05T04:27:43.099Z,992.00
2019-03-05T04:28:43.093Z,991.93
2019-03-05T04:29:43.077Z,992.18
2019-03-05T04:30:43.100Z,992.14
2019-03-05T04:31:43.058Z,992.07
2019-03-05T04:32:43.041Z,992.15
2019-03-05T04:33:43.057Z,992.14
2019-03-05T04:34:43.029Z,992.19
2019-03-05T04:35:43.043Z,992.15
2019-03-05T04:36:42.999Z,992.22
2019-03-05T04:37:42.984Z,992.22
2019-03-05T04:38:42.973Z,992.16
2019-03-05T04:39:42.972Z,992.14
2019-03-05T04:40:42.972Z,992.13
2019-03-05T04:41:42.984Z,992.25
2019-03-05T04:42:42.935Z,992.17
2019-03-05T04:43:42.923Z,992.35
2019-03-05T04:44:42.907Z,992.21
2019-03-05T04:45:42.913Z,992.18
2019-03-05T04:46:42.932Z,992.23
2019-03-05T04:47:42.876Z,992.16
2019-03-05T04:48:42.864Z,992.13
2019-03-05T04:49:42.859Z,992.16
2019-03-05T04:50:42.843Z,992.26
2019-03-05T04:51:42.867Z,992.21
2019-03-05T04:52:42.826Z,992.19
2019-03-05T04:53:42.814Z,992.30
2019-03-05T04:54:42.801Z,992.30
2019-03-05T04:55:42.786Z,992.23
2019-03-05T04:56:42.834Z,992.46
2019-03-05T04:57:42.760Z,992.23
2019-03-05T04:58:42.748Z,992.26
2019-03-05T04:59:42.753Z,992.12
2019-03-05T05:00:42.755Z,992.15
2019-03-05T05:01:42.717Z,992.25
2019-03-05T05:02:42.749Z,992.16
2019-03-05T05:03:42.735Z,992.13
2019-03-05T05:04:42.706Z,992.11
2019-03-05T05:05:42.688Z,992.24
2019-03-05T05:06:42.666Z,992.30
2019-03-05T05:07:42.714Z,992.20
2019-03-05T05:08:42.687Z,992.19
2019-03-05T05:09:42.673Z,992.23
2019-03-05T05:10:42.701Z,992.17
2019-03-05T05:11:42.616Z,992.17
2019-03-05T05:12:42.627Z,992.16
2019-03-05T05:13:42.594Z,992.31
2019-03-05T05:14:42.578Z,992.35
2019-03-05T05:15:42.560Z,992.37
2019-03-05T05:16:42.565Z,992.17
2019-03-05T05:17:42.593Z,992.58
2019-03-05T05:18:42.554Z,992.58
2019-03-05T05:19:42.522Z,992.54
2019-03-05T05:20:42.526Z,992.71
2019-03-05T05:21:42.498Z,992.86
2019-03-05T05:22:42.529Z,992.34
2019-03-05T05:23:42.487Z,992.57
2019-03-05T05:24:42.500Z,992.50
2019-03-05T05:25:42.463Z,992.58
2019-03-05T05:26:42.445Z,992.51
2019-03-05T05:27:42.482Z,992.73
2019-03-05T05:28:42.459Z,992.68
2019-03-05T05:29:42.411Z,992.65
2019-03-05T05:30:42.393Z,992.45
2019-03-05T05:31:42.421Z,992.68
2019-03-05T05:32:42.385Z,992.66
2019-03-05T05:33:42.372Z,992.59
2019-03-05T05:34:42.401Z,992.75
2019-03-05T05:35:42.350Z,992.77
2019-03-05T05:36:42.336Z,992.59
2019-03-05T05:37:42.329Z,992.76
2019-03-05T05:38:42.737Z,992.73
2019-03-05T05:39:42.296Z,992.63
2019-03-05T05:40:42.321Z,992.71
2019-03-05T05:41:42.342Z,992.65
2019-03-05T05:42:42.267Z,992.75
2019-03-05T05:43:42.261Z,992.74
2019-03-05T05:44:42.258Z,992.62
2019-03-05T05:45:42.250Z,992.78
2019-03-05T05:46:42.273Z,992.76
2019-03-05T05:47:42.219Z,992.83
2019-03-05T05:48:42.222Z,992.68
2019-03-05T05:49:42.199Z,992.74
2019-03-05T05:50:42.191Z,992.61
2019-03-05T05:51:44.337Z,992.98
2019-03-05T05:52:42.211Z,992.74
2019-03-05T05:53:42.154Z,992.76
2019-03-05T05:54:42.145Z,992.69
2019-03-05T05:55:42.136Z,992.82
2019-03-05T05:56:42.126Z,992.78
2019-03-05T05:57:42.122Z,992.88
2019-03-05T05:58:42.181Z,992.94
2019-03-05T05:59:42.107Z,992.96
2019-03-05T06:00:42.090Z,992.95
2019-03-05T06:01:42.155Z,992.83
2019-03-05T06:02:42.057Z,993.03
2019-03-05T06:03:42.076Z,993.09
2019-03-05T06:04:42.031Z,992.94
2019-03-05T06:05:42.020Z,992.90
2019-03-05T06:06:42.003Z,992.78
2019-03-05T06:07:42.011Z,992.97
2019-03-05T06:08:42.076Z,993.06
2019-03-05T06:09:42.021Z,992.99
2019-03-05T06:10:41.972Z,993.03
2019-03-05T06:11:41.962Z,992.96
2019-03-05T06:12:41.942Z,993.08
2019-03-05T06:13:41.983Z,993.00
2019-03-05T06:14:41.938Z,993.01
2019-03-05T06:15:41.925Z,993.09
2019-03-05T06:16:41.907Z,993.10
2019-03-05T06:17:41.906Z,993.03
2019-03-05T06:18:41.884Z,993.06
2019-03-05T06:19:41.898Z,993.03
2019-03-05T06:20:42.826Z,993.17
2019-03-05T06:21:41.865Z,993.15
2019-03-05T06:22:41.865Z,993.06
2019-03-05T06:23:41.820Z,993.37
2019-03-05T06:24:41.849Z,993.17
2019-03-05T06:25:41.805Z,993.19
2019-03-05T06:26:41.791Z,993.16
2019-03-05T06:27:41.788Z,993.15
2019-03-05T06:28:41.786Z,993.18
2019-03-05T06:29:41.764Z,993.16
2019-03-05T06:30:41.791Z,993.18
2019-03-05T06:31:41.735Z,993.22
2019-03-05T06:32:41.731Z,993.33
2019-03-05T06:33:41.778Z,993.28
2019-03-05T06:34:41.712Z,993.23
2019-03-05T06:35:41.736Z,993.35
2019-03-05T06:36:41.734Z,993.40
2019-03-05T06:37:41.673Z,993.44
2019-03-05T06:38:41.659Z,993.34
2019-03-05T06:39:41.653Z,993.45
2019-03-05T06:40:41.640Z,993.34
2019-03-05T06:41:41.671Z,993.33
2019-03-05T06:42:41.622Z,993.40
2019-03-05T06:43:41.609Z,993.37
2019-03-05T06:44:41.591Z,993.41
2019-03-05T06:45:41.629Z,993.45
2019-03-05T06:46:41.571Z,993.46
2019-03-05T06:47:41.592Z,993.47
2019-03-05T06:48:41.553Z,993.55
2019-03-05T06:49:41.553Z,993.51
2019-03-05T06:50:41.529Z,993.45
2019-03-05T06:51:41.521Z,993.45
2019-03-05T06:52:41.540Z,993.53
2019-03-05T06:53:41.516Z,993.78
2019-03-05T06:54:41.490Z,993.76
2019-03-05T06:55:41.467Z,993.62
2019-03-05T06:56:41.505Z,993.61
2019-03-05T06:57:41.461Z,993.65
2019-03-05T06:58:41.479Z,993.69
2019-03-05T06:59:41.434Z,993.66
2019-03-05T07:00:41.426Z,993.59
2019-03-05T07:01:41.410Z,993.65
2019-03-05T07:02:41.414Z,993.73
2019-03-05T07:03:41.390Z,993.65
2019-03-05T07:04:41.402Z,993.75
2019-03-05T07:05:41.363Z,993.83
2019-03-05T07:06:41.357Z,993.93
2019-03-05T07:07:41.421Z,993.81
2019-03-05T07:08:41.425Z,993.94
2019-03-05T07:09:41.327Z,993.79
2019-03-05T07:10:41.315Z,993.88
2019-03-05T07:11:41.307Z,993.85
2019-03-05T07:12:41.296Z,993.81
2019-03-05T07:13:41.306Z,993.88
2019-03-05T07:14:41.280Z,993.78
2019-03-05T07:15:41.259Z,993.94
2019-03-05T07:16:41.247Z,993.88
2019-03-05T07:17:41.256Z,993.97
2019-03-05T07:18:41.285Z,993.85
2019-03-05T07:19:41.218Z,993.95
2019-03-05T07:20:41.206Z,993.95
2019-03-05T07:21:41.208Z,994.02
2019-03-05T07:22:41.185Z,994.00
2019-03-05T07:23:43.078Z,993.99
2019-03-05T07:24:41.157Z,994.00
2019-03-05T07:25:41.155Z,994.09
2019-03-05T07:26:41.143Z,994.05
2019-03-05T07:27:41.130Z,994.08
2019-03-05T07:28:41.116Z,994.03
2019-03-05T07:29:41.206Z,994.12
2019-03-05T07:30:41.093Z,994.11
2019-03-05T07:31:41.087Z,994.07
2019-03-05T07:32:41.079Z,994.05
2019-03-05T07:33:41.062Z,994.12
2019-03-05T07:34:41.105Z,994.17
2019-03-05T07:35:41.039Z,994.19
2019-03-05T07:36:41.053Z,994.30
2019-03-05T07:37:41.024Z,994.48
2019-03-05T07:38:41.008Z,994.36
2019-03-05T07:39:41.003Z,994.49
2019-03-05T07:40:41.058Z,994.22
2019-03-05T07:41:40.987Z,994.28
2019-03-05T07:42:40.962Z,994.38
2019-03-05T07:43:40.957Z,994.28
2019-03-05T07:44:40.946Z,994.38
2019-03-05T07:45:41.000Z,994.26
2019-03-05T07:46:40.940Z,994.25
2019-03-05T07:47:40.910Z,994.35
2019-03-05T07:48:40.901Z,994.32
2019-03-05T07:49:44.036Z,994.37
2019-03-05T07:50:40.922Z,994.29
2019-03-05T07:51:40.906Z,994.32
2019-03-05T07:52:40.863Z,994.18
2019-03-05T07:53:40.849Z,994.27
2019-03-05T07:54:40.838Z,994.29
2019-03-05T07:55:40.883Z,994.26
2019-03-05T07:56:40.862Z,994.22
2019-03-05T07:57:40.904Z,994.33
2019-03-05T07:58:40.797Z,994.23
2019-03-05T07:59:40.786Z,994.36
2019-03-05T08:00:40.773Z,994.20
2019-03-05T08:01:40.831Z,994.35
2019-03-05T08:02:40.755Z,994.31
2019-03-05T08:03:40.775Z,994.40
2019-03-05T08:04:40.744Z,994.34
2019-03-05T08:05:40.726Z,994.43
2019-03-05T08:06:40.759Z,994.35
2019-03-05T08:07:40.741Z,994.34
2019-03-05T08:08:40.685Z,994.35
2019-03-05T08:09:40.682Z,994.44
2019-03-05T08:10:40.672Z,994.47
2019-03-05T08:11:40.657Z,994.49
2019-03-05T08:12:40.701Z,994.46
2019-03-05T08:13:40.630Z,994.44
2019-03-05T08:14:40.619Z,994.47
2019-03-05T08:15:40.792Z,994.49
2019-03-05T08:16:40.614Z,994.71
2019-03-05T08:17:40.643Z,994.52
2019-03-05T08:18:40.586Z,994.64
2019-03-05T08:19:40.612Z,994.66
2019-03-05T08:20:40.555Z,994.62
2019-03-05T08:21:40.586Z,994.55
2019-03-05T08:22:40.543Z,994.70
2019-03-05T08:23:40.585Z,994.55
2019-03-05T08:24:40.513Z,994.72
2019-03-05T08:25:40.567Z,994.59
2019-03-05T08:26:40.494Z,994.56
2019-03-05T08:27:40.533Z,994.61
2019-03-05T08:28:40.477Z,994.61
2019-03-05T08:29:40.456Z,994.71
2019-03-05T08:30:40.498Z,994.52
2019-03-05T08:31:40.445Z,994.74
2019-03-05T08:32:40.432Z,994.81
2019-03-05T08:33:40.467Z,994.82
2019-03-05T08:34:40.452Z,994.72
2019-03-05T08:35:40.452Z,994.93
2019-03-05T08:36:40.433Z,994.77
2019-03-05T08:37:40.368Z,994.66
2019-03-05T08:38:40.358Z,994.80
2019-03-05T08:39:40.359Z,994.87
2019-03-05T08:40:40.390Z,994.82
2019-03-05T08:41:40.332Z,994.80
2019-03-05T08:42:40.324Z,994.87
2019-03-05T08:43:40.306Z,994.90
2019-03-05T08:44:49.971Z,994.90
2019-03-05T08:45:41.330Z,994.89
2019-03-05T08:46:40.307Z,994.94
2019-03-05T08:47:40.263Z,994.87
2019-03-05T08:48:40.260Z,994.91
2019-03-05T08:49:40.241Z,994.96
2019-03-05T08:50:40.266Z,995.01
2019-03-05T08:51:40.273Z,994.99
2019-03-05T08:52:40.226Z,995.08
2019-03-05T08:53:49.280Z,995.22
2019-03-05T08:54:41.197Z,995.25
2019-03-05T08:55:40.178Z,995.01
2019-03-05T08:56:40.168Z,994.99
2019-03-05T08:57:40.224Z,994.98
2019-03-05T08:58:40.142Z,994.97
2019-03-05T08:59:40.137Z,995.14
2019-03-05T09:00:40.129Z,995.28
2019-03-05T09:01:40.179Z,994.97
2019-03-05T09:02:48.011Z,995.08
2019-03-05T09:03:41.094Z,995.31
2019-03-05T09:04:40.101Z,995.21
2019-03-05T09:05:40.072Z,995.18
2019-03-05T09:06:40.059Z,995.34
2019-03-05T09:07:40.084Z,995.24
2019-03-05T09:08:40.049Z,995.28
2019-03-05T09:09:40.024Z,995.11
2019-03-05T09:10:40.012Z,995.35
2019-03-05T09:11:40.007Z,995.22
2019-03-05T09:12:40.032Z,995.36
2019-03-05T09:13:39.993Z,995.25
2019-03-05T09:14:39.975Z,995.16
2019-03-05T09:15:39.965Z,995.17
2019-03-05T09:16:39.944Z,995.12
2019-03-05T09:17:39.962Z,995.52
2019-03-05T09:18:39.982Z,995.21
2019-03-05T09:19:39.916Z,995.25
2019-03-05T09:20:39.903Z,995.25
2019-03-05T09:21:39.909Z,995.23
2019-03-05T09:22:39.956Z,995.18
2019-03-05T09:23:39.881Z,995.20
2019-03-05T09:24:39.871Z,995.37
2019-03-05T09:25:39.860Z,995.39
2019-03-05T09:26:50.487Z,995.39
2019-03-05T09:27:40.862Z,995.27
2019-03-05T09:28:39.814Z,995.41
2019-03-05T09:29:39.806Z,995.29
2019-03-05T09:30:39.835Z,995.21
2019-03-05T09:31:39.789Z,995.34
2019-03-05T09:32:39.777Z,995.34
2019-03-05T09:33:39.793Z,995.54
2019-03-05T09:34:39.768Z,995.56
2019-03-05T09:35:39.764Z,995.30
2019-03-05T09:36:50.004Z,995.29
2019-03-05T09:37:40.815Z,995.59
2019-03-05T09:38:39.709Z,995.48
2019-03-05T09:39:39.697Z,995.45
2019-03-05T09:40:39.685Z,995.69
2019-03-05T09:41:39.675Z,996.00
2019-03-05T09:42:40.329Z,995.50
2019-03-05T09:43:39.677Z,995.56
2019-03-05T09:44:39.752Z,995.59
2019-03-05T09:45:39.648Z,995.63
2019-03-05T09:46:39.627Z,995.58
2019-03-05T09:47:39.635Z,995.68
2019-03-05T09:48:39.599Z,995.68
2019-03-05T09:49:39.591Z,995.59
2019-03-05T09:50:39.589Z,995.61
2019-03-05T09:51:39.625Z,995.66
2019-03-05T09:52:39.600Z,995.96
2019-03-05T09:53:39.543Z,995.75
2019-03-05T09:54:39.534Z,995.79
2019-03-05T09:55:39.526Z,995.83
2019-03-05T09:56:39.546Z,995.76
2019-03-05T09:57:39.536Z,995.70
2019-03-05T09:58:39.544Z,995.78
2019-03-05T09:59:39.521Z,995.85
2019-03-05T10:00:39.468Z,995.89
2019-03-05T10:01:39.501Z,995.95
2019-03-05T10:02:39.521Z,995.77
2019-03-05T10:03:39.442Z,995.88
2019-03-05T10:04:39.467Z,995.86
2019-03-05T10:05:39.524Z,995.91
2019-03-05T10:06:39.403Z,995.87
2019-03-05T10:07:39.439Z,996.02
2019-03-05T10:08:39.391Z,995.92
2019-03-05T10:09:39.378Z,996.08
2019-03-05T10:10:39.404Z,995.98
2019-03-05T10:11:39.381Z,996.29
2019-03-05T10:12:39.365Z,996.07
2019-03-05T10:13:39.392Z,996.07
2019-03-05T10:14:39.338Z,996.05
2019-03-05T10:15:39.350Z,996.11
2019-03-05T10:16:39.312Z,996.03
2019-03-05T10:17:39.289Z,995.95
2019-03-05T10:18:39.432Z,995.99
2019-03-05T10:19:39.263Z,996.13
2019-03-05T10:20:39.292Z,996.20
2019-03-05T10:21:46.136Z,996.12
2019-03-05T10:22:40.231Z,996.00
2019-03-05T10:23:39.221Z,996.04
2019-03-05T10:24:39.210Z,995.99
2019-03-05T10:25:39.234Z,995.98
2019-03-05T10:26:39.182Z,995.92
2019-03-05T10:27:39.181Z,996.01
2019-03-05T10:28:39.173Z,995.96
2019-03-05T10:29:39.157Z,995.75
2019-03-05T10:30:39.186Z,996.02
2019-03-05T10:31:39.128Z,996.03
2019-03-05T10:32:39.121Z,995.99
2019-03-05T10:33:39.103Z,996.18
2019-03-05T10:34:39.091Z,996.35
2019-03-05T10:35:39.092Z,996.15
2019-03-05T10:36:39.113Z,996.03
2019-03-05T10:37:39.066Z,996.01
2019-03-05T10:38:39.129Z,996.19
2019-03-05T10:39:39.041Z,996.03
2019-03-05T10:40:39.068Z,996.23
2019-03-05T10:41:39.053Z,996.04
2019-03-05T10:42:41.208Z,996.04
2019-03-05T10:43:38.990Z,996.15
2019-03-05T10:44:38.983Z,996.07
2019-03-05T10:45:39.003Z,996.11
2019-03-05T10:46:38.958Z,996.01
2019-03-05T10:47:38.954Z,996.21
2019-03-05T10:48:38.945Z,996.19
2019-03-05T10:49:38.933Z,996.11
2019-03-05T10:50:38.922Z,996.23
2019-03-05T10:51:38.940Z,996.17
2019-03-05T10:52:38.894Z,996.10
2019-03-05T10:53:38.896Z,996.02
2019-03-05T10:54:38.880Z,996.03
2019-03-05T10:55:38.863Z,996.12
2019-03-05T10:56:38.882Z,996.23
2019-03-05T10:57:38.842Z,996.22
2019-03-05T10:58:38.831Z,996.30
2019-03-05T10:59:38.824Z,996.04
2019-03-05T11:00:38.820Z,996.48
2019-03-05T11:01:38.836Z,996.11
2019-03-05T11:02:38.789Z,996.05
2019-03-05T11:03:38.775Z,996.17
2019-03-05T11:04:45.625Z,996.09
2019-03-05T11:05:39.761Z,996.20
2019-03-05T11:06:38.743Z,996.09
2019-03-05T11:07:39.152Z,996.11
2019-03-05T11:08:38.742Z,996.05
2019-03-05T11:09:38.715Z,996.16
2019-03-05T11:10:41.089Z,996.11
2019-03-05T11:11:38.708Z,996.10
2019-03-05T11:12:38.726Z,996.03
2019-03-05T11:13:38.746Z,996.26
2019-03-05T11:14:38.664Z,996.30
2019-03-05T11:15:38.654Z,996.17
2019-03-05T11:16:38.658Z,996.24
2019-03-05T11:17:38.632Z,996.21
2019-03-05T11:18:38.652Z,996.26
2019-03-05T11:19:38.610Z,996.26
2019-03-05T11:20:38.596Z,996.22
2019-03-05T11:21:38.596Z,996.20
2019-03-05T11:22:38.586Z,996.24
2019-03-05T11:23:38.597Z,996.27
2019-03-05T11:24:38.546Z,996.18
2019-03-05T11:25:38.537Z,996.16
2019-03-05T11:26:38.527Z,996.21
2019-03-05T11:27:38.530Z,996.24
2019-03-05T11:28:38.507Z,996.23
2019-03-05T11:29:38.521Z,996.23
2019-03-05T11:30:38.478Z,996.21
2019-03-05T11:31:38.477Z,996.18
2019-03-05T11:32:38.504Z,996.27
2019-03-05T11:33:38.505Z,996.21
2019-03-05T11:34:38.450Z,996.13
2019-03-05T11:35:39.070Z,996.23
2019-03-05T11:36:38.415Z,996.14
2019-03-05T11:37:38.412Z,996.17
2019-03-05T11:38:38.397Z,996.30
2019-03-05T11:39:38.417Z,996.18
2019-03-05T11:40:38.392Z,996.20
2019-03-05T11:41:38.364Z,996.18
2019-03-05T11:42:38.357Z,996.24
2019-03-05T11:43:38.841Z,996.29
2019-03-05T11:44:38.391Z,996.22
2019-03-05T11:45:38.331Z,996.23
2019-03-05T11:46:38.315Z,996.22
2019-03-05T11:47:38.296Z,996.15
2019-03-05T11:48:38.287Z,996.28
2019-03-05T11:49:38.310Z,996.20
2019-03-05T11:50:38.262Z,996.23
2019-03-05T11:51:38.262Z,996.25
2019-03-05T11:52:38.260Z,996.23
2019-03-05T11:53:38.239Z,996.23
2019-03-05T11:54:38.280Z,996.23
2019-03-05T11:55:38.207Z,996.25
2019-03-05T11:56:38.196Z,996.23
2019-03-05T11:57:38.204Z,996.30
2019-03-05T11:58:38.182Z,996.37
2019-03-05T11:59:38.222Z,996.34
2019-03-05T12:00:38.155Z,996.28
2019-03-05T12:01:38.152Z,996.44
2019-03-05T12:02:38.138Z,996.43
2019-03-05T12:03:38.136Z,996.50
2019-03-05T12:04:38.158Z,996.34
2019-03-05T12:05:38.126Z,996.54
2019-03-05T12:06:38.094Z,996.49
2019-03-05T12:07:38.077Z,996.50
2019-03-05T12:08:38.072Z,996.43
2019-03-05T12:09:38.094Z,996.51
2019-03-05T12:10:38.053Z,996.57
2019-03-05T12:11:38.048Z,996.66
2019-03-05T12:12:38.028Z,996.45
2019-03-05T12:13:38.011Z,996.54
2019-03-05T12:14:38.035Z,996.52
2019-03-05T12:15:38.003Z,996.44
2019-03-05T12:16:37.994Z,996.48
2019-03-05T12:17:37.978Z,996.51
2019-03-05T12:18:47.146Z,996.50
2019-03-05T12:19:37.946Z,996.56
2019-03-05T12:20:46.575Z,996.57
2019-03-05T12:21:37.938Z,996.58
2019-03-05T12:22:37.926Z,996.49
2019-03-05T12:23:37.905Z,996.60
2019-03-05T12:24:37.925Z,996.56
2019-03-05T12:25:39.813Z,996.60
2019-03-05T12:26:37.887Z,996.57
2019-03-05T12:27:37.862Z,996.59
2019-03-05T12:28:37.850Z,996.67